Gravenhurst, Canada
Current Conditions -  °F | °C
As of 12:01 PM on Saturday 25 Oct 2014 (Local Time) from CYQA Reporting Station
Haze Haze  
Wind Chill: 50°   Ceiling: 800
Heat Index: 50°   Visibility: 3mi
Dew Point: 48°   Wind: 12mph
Humidity: 94%   Direction: 230°SW
Pressure: 29.58"   Gusts: NA
Location:  44.92°N, 79.37°W
Report Text: CYQA 251601Z AUTO 23010KT 3SM BR BKN008 OVC014 10/09 A2958 RMK SLP024
Loading
Personal Weather Stations






























Interactive Weather Map
Tropical Storm Tracking
New forecast layout! Learn more

10-Day Weather Forecast

Advertisements
Track Severe Weather on mobile